PAPN

Details ICAO PAPN (PIP)
Name PILOT POINT
Region USA (Alaska)
Timezone America/Anchorage (UTC-9.0)
Plans Departing 1
Arriving 1
Stats Elevation 57 ft / 17 m (AMSL)
Location 57.580381° -157.571957°
Runways 1
Magnetic Variation 13.001° E
Sunrise 2017-12-17 19:10:28 UTC / 2017-12-17 10:10:28 Local
Sunset 2017-12-18 01:45:30 UTC / 2017-12-17 16:45:30 Local
Advertisement - Login to hide

Runways

ID Width Length Bearing (true) Bearing (mag) Surface Threshold Offset Overrun Length
07 75 ft / 23 m 3,270 ft / 997 m 89.99° 76.99° Gravel 0 ft / 0 m 0 ft / 0 m
25 75 ft / 23 m 3,270 ft / 997 m 270.01° 257.01° Gravel 0 ft / 0 m 0 ft / 0 m

Map

Weather


0- 5 10 15 20 25 30 35+ Temperature / ° C

Clouds and Precipitation
Forecast for 2017-12-17 18:00 UTC. Updated an hour ago

Ground ~20,000 ft ~40,000 ft Winds

METAR

PAPN 171756Z AUTO 34003KT 10SM FEW060 M06/M07 A2957 RMK AO2 SLP016 60002 T10611067 10006 21061 53050 FZRANO

TAF

Not found

Frequencies

Recorded 118.37 MHz AWOS 3
Unicom 122.90 MHz CTAF
Warning: Do not use this data for real-world aviation or navigation. No guarantee of current accuracy is given.